sensor_id;sensor_type;location;lat;lon;timestamp;P1;durP1;ratioP1;P2;durP2;ratioP2
48203;SDS011;33994;50.998;5.864;2022-08-06T00:00:37;4.10;;;1.80;;
48203;SDS011;33994;50.998;5.864;2022-08-06T00:03:42;5.97;;;1.50;;
48203;SDS011;33994;50.998;5.864;2022-08-06T00:06:47;3.88;;;1.30;;
48203;SDS011;33994;50.998;5.864;2022-08-06T00:09:52;10.07;;;1.63;;
48203;SDS011;33994;50.998;5.864;2022-08-06T00:12:58;5.05;;;1.60;;
48203;SDS011;33994;50.998;5.864;2022-08-06T00:16:03;8.05;;;1.60;;
48203;SDS011;33994;50.998;5.864;2022-08-06T00:19:07;8.20;;;1.75;;
48203;SDS011;33994;50.998;5.864;2022-08-06T00:22:11;8.82;;;1.77;;
48203;SDS011;33994;50.998;5.864;2022-08-06T00:25:15;4.15;;;1.67;;
48203;SDS011;33994;50.998;5.864;2022-08-06T00:28:21;5.63;;;1.80;;
48203;SDS011;33994;50.998;5.864;2022-08-06T00:31:26;4.18;;;1.45;;
48203;SDS011;33994;50.998;5.864;2022-08-06T00:34:30;7.45;;;1.80;;
48203;SDS011;33994;50.998;5.864;2022-08-06T00:37:35;7.50;;;2.15;;
48203;SDS011;33994;50.998;5.864;2022-08-06T00:40:39;6.50;;;2.17;;
48203;SDS011;33994;50.998;5.864;2022-08-06T00:43:44;7.63;;;2.20;;
48203;SDS011;33994;50.998;5.864;2022-08-06T00:46:49;7.07;;;2.17;;
48203;SDS011;33994;50.998;5.864;2022-08-06T00:49:53;5.07;;;2.25;;
48203;SDS011;33994;50.998;5.864;2022-08-06T00:53:01;6.32;;;2.00;;
48203;SDS011;33994;50.998;5.864;2022-08-06T00:56:07;5.47;;;2.17;;
48203;SDS011;33994;50.998;5.864;2022-08-06T00:59:11;8.43;;;2.08;;
48203;SDS011;33994;50.998;5.864;2022-08-06T01:02:16;10.30;;;2.50;;
48203;SDS011;33994;50.998;5.864;2022-08-06T01:05:20;8.70;;;2.25;;
48203;SDS011;33994;50.998;5.864;2022-08-06T01:08:25;9.18;;;2.00;;
48203;SDS011;33994;50.998;5.864;2022-08-06T01:11:29;2.72;;;1.80;;
48203;SDS011;33994;50.998;5.864;2022-08-06T01:14:34;5.47;;;2.05;;
48203;SDS011;33994;50.998;5.864;2022-08-06T01:17:54;5.97;;;1.75;;
48203;SDS011;33994;50.998;5.864;2022-08-06T01:31:21;2.78;;;1.73;;
48203;SDS011;33994;50.998;5.864;2022-08-06T01:34:40;4.80;;;1.88;;
48203;SDS011;33994;50.998;5.864;2022-08-06T01:37:52;4.22;;;2.08;;
48203;SDS011;33994;50.998;5.864;2022-08-06T01:41:10;3.47;;;1.83;;
48203;SDS011;33994;50.998;5.864;2022-08-06T01:44:37;5.85;;;2.10;;
48203;SDS011;33994;50.998;5.864;2022-08-06T01:47:45;5.60;;;1.80;;
48203;SDS011;33994;50.998;5.864;2022-08-06T01:50:52;2.67;;;1.73;;
48203;SDS011;33994;50.998;5.864;2022-08-06T01:54:01;7.35;;;1.92;;
48203;SDS011;33994;50.998;5.864;2022-08-06T01:57:08;5.80;;;1.70;;
48203;SDS011;33994;50.998;5.864;2022-08-06T02:00:16;7.10;;;2.20;;
48203;SDS011;33994;50.998;5.864;2022-08-06T02:03:25;6.85;;;1.88;;
48203;SDS011;33994;50.998;5.864;2022-08-06T02:06:39;8.25;;;2.38;;
48203;SDS011;33994;50.998;5.864;2022-08-06T02:09:45;5.35;;;1.83;;
48203;SDS011;33994;50.998;5.864;2022-08-06T02:12:52;6.72;;;2.05;;
48203;SDS011;33994;50.998;5.864;2022-08-06T02:15:56;7.60;;;2.03;;
48203;SDS011;33994;50.998;5.864;2022-08-06T02:19:02;5.32;;;1.90;;
48203;SDS011;33994;50.998;5.864;2022-08-06T02:22:09;5.60;;;2.05;;
48203;SDS011;33994;50.998;5.864;2022-08-06T02:25:14;6.13;;;1.85;;
48203;SDS011;33994;50.998;5.864;2022-08-06T02:28:22;5.05;;;2.28;;
48203;SDS011;33994;50.998;5.864;2022-08-06T02:31:30;4.35;;;1.80;;
48203;SDS011;33994;50.998;5.864;2022-08-06T02:34:34;7.68;;;2.58;;
48203;SDS011;33994;50.998;5.864;2022-08-06T02:41:10;7.95;;;2.17;;
48203;SDS011;33994;50.998;5.864;2022-08-06T02:44:31;4.95;;;2.00;;
48203;SDS011;33994;50.998;5.864;2022-08-06T02:47:42;9.80;;;2.50;;
48203;SDS011;33994;50.998;5.864;2022-08-06T02:50:53;9.07;;;3.95;;
48203;SDS011;33994;50.998;5.864;2022-08-06T02:54:00;4.75;;;1.95;;
48203;SDS011;33994;50.998;5.864;2022-08-06T02:57:10;6.32;;;2.63;;
48203;SDS011;33994;50.998;5.864;2022-08-06T03:00:20;5.82;;;2.10;;
48203;SDS011;33994;50.998;5.864;2022-08-06T03:03:26;8.13;;;2.53;;
48203;SDS011;33994;50.998;5.864;2022-08-06T03:06:32;5.57;;;2.33;;
48203;SDS011;33994;50.998;5.864;2022-08-06T03:09:40;4.63;;;2.15;;
48203;SDS011;33994;50.998;5.864;2022-08-06T03:12:48;4.70;;;1.88;;
48203;SDS011;33994;50.998;5.864;2022-08-06T03:15:55;3.20;;;2.17;;
48203;SDS011;33994;50.998;5.864;2022-08-06T03:19:03;4.83;;;2.20;;
48203;SDS011;33994;50.998;5.864;2022-08-06T03:22:09;6.63;;;1.90;;
48203;SDS011;33994;50.998;5.864;2022-08-06T03:25:16;7.97;;;2.30;;
48203;SDS011;33994;50.998;5.864;2022-08-06T03:28:23;4.95;;;1.70;;
48203;SDS011;33994;50.998;5.864;2022-08-06T03:31:29;5.30;;;2.08;;
48203;SDS011;33994;50.998;5.864;2022-08-06T03:34:34;2.50;;;1.60;;
48203;SDS011;33994;50.998;5.864;2022-08-06T03:37:40;6.43;;;2.30;;
48203;SDS011;33994;50.998;5.864;2022-08-06T03:40:46;10.52;;;2.30;;
48203;SDS011;33994;50.998;5.864;2022-08-06T03:43:52;10.32;;;2.35;;
48203;SDS011;33994;50.998;5.864;2022-08-06T03:46:58;6.25;;;1.83;;
48203;SDS011;33994;50.998;5.864;2022-08-06T03:53:19;25.67;;;3.65;;
48203;SDS011;33994;50.998;5.864;2022-08-06T03:56:27;6.35;;;2.30;;
48203;SDS011;33994;50.998;5.864;2022-08-06T03:59:33;8.18;;;1.98;;
48203;SDS011;33994;50.998;5.864;2022-08-06T04:02:42;5.50;;;1.92;;
48203;SDS011;33994;50.998;5.864;2022-08-06T04:05:50;3.42;;;2.05;;
48203;SDS011;33994;50.998;5.864;2022-08-06T04:08:56;3.83;;;2.00;;
48203;SDS011;33994;50.998;5.864;2022-08-06T04:12:02;5.90;;;2.22;;
48203;SDS011;33994;50.998;5.864;2022-08-06T04:15:08;6.63;;;2.17;;
48203;SDS011;33994;50.998;5.864;2022-08-06T04:18:14;7.45;;;2.38;;
48203;SDS011;33994;50.998;5.864;2022-08-06T04:21:22;7.43;;;2.17;;
48203;SDS011;33994;50.998;5.864;2022-08-06T04:24:28;4.75;;;2.20;;
48203;SDS011;33994;50.998;5.864;2022-08-06T04:27:32;5.70;;;2.28;;
48203;SDS011;33994;50.998;5.864;2022-08-06T04:30:39;5.75;;;2.17;;
48203;SDS011;33994;50.998;5.864;2022-08-06T04:33:43;4.68;;;2.10;;
48203;SDS011;33994;50.998;5.864;2022-08-06T04:36:49;6.70;;;2.45;;
48203;SDS011;33994;50.998;5.864;2022-08-06T04:39:54;8.13;;;2.10;;
48203;SDS011;33994;50.998;5.864;2022-08-06T04:42:59;4.47;;;2.30;;
48203;SDS011;33994;50.998;5.864;2022-08-06T04:46:04;7.35;;;2.38;;
48203;SDS011;33994;50.998;5.864;2022-08-06T04:49:08;12.30;;;2.58;;
48203;SDS011;33994;50.998;5.864;2022-08-06T04:52:23;6.93;;;2.65;;
48203;SDS011;33994;50.998;5.864;2022-08-06T04:55:29;3.85;;;2.30;;
48203;SDS011;33994;50.998;5.864;2022-08-06T04:58:33;6.22;;;2.28;;
48203;SDS011;33994;50.998;5.864;2022-08-06T05:01:39;7.75;;;2.78;;
48203;SDS011;33994;50.998;5.864;2022-08-06T05:04:43;6.43;;;2.38;;
48203;SDS011;33994;50.998;5.864;2022-08-06T05:07:47;7.72;;;2.50;;
48203;SDS011;33994;50.998;5.864;2022-08-06T05:11:06;9.48;;;2.17;;
48203;SDS011;33994;50.998;5.864;2022-08-06T05:14:21;7.93;;;2.50;;
48203;SDS011;33994;50.998;5.864;2022-08-06T05:17:32;7.45;;;2.65;;
48203;SDS011;33994;50.998;5.864;2022-08-06T05:20:40;5.30;;;2.50;;
48203;SDS011;33994;50.998;5.864;2022-08-06T05:23:48;7.45;;;3.10;;
48203;SDS011;33994;50.998;5.864;2022-08-06T05:26:56;11.73;;;2.95;;
48203;SDS011;33994;50.998;5.864;2022-08-06T05:30:03;8.85;;;3.20;;
48203;SDS011;33994;50.998;5.864;2022-08-06T05:33:08;12.07;;;3.10;;
48203;SDS011;33994;50.998;5.864;2022-08-06T05:36:12;10.00;;;2.85;;
48203;SDS011;33994;50.998;5.864;2022-08-06T05:39:17;11.07;;;2.90;;
48203;SDS011;33994;50.998;5.864;2022-08-06T05:42:22;10.02;;;2.85;;
48203;SDS011;33994;50.998;5.864;2022-08-06T05:45:27;8.23;;;3.03;;
48203;SDS011;33994;50.998;5.864;2022-08-06T05:48:32;12.43;;;3.45;;
48203;SDS011;33994;50.998;5.864;2022-08-06T05:51:50;9.07;;;3.40;;
48203;SDS011;33994;50.998;5.864;2022-08-06T05:55:06;8.38;;;2.63;;
48203;SDS011;33994;50.998;5.864;2022-08-06T05:58:17;8.95;;;2.70;;
48203;SDS011;33994;50.998;5.864;2022-08-06T06:01:27;11.45;;;3.03;;
48203;SDS011;33994;50.998;5.864;2022-08-06T06:04:32;9.75;;;3.40;;
48203;SDS011;33994;50.998;5.864;2022-08-06T06:07:38;11.25;;;4.07;;
48203;SDS011;33994;50.998;5.864;2022-08-06T06:10:43;8.38;;;4.10;;
48203;SDS011;33994;50.998;5.864;2022-08-06T06:13:49;6.50;;;3.47;;
48203;SDS011;33994;50.998;5.864;2022-08-06T06:16:57;14.55;;;3.70;;
48203;SDS011;33994;50.998;5.864;2022-08-06T06:26:46;7.05;;;2.92;;
48203;SDS011;33994;50.998;5.864;2022-08-06T06:30:03;6.85;;;2.55;;
48203;SDS011;33994;50.998;5.864;2022-08-06T06:39:47;5.78;;;2.08;;
48203;SDS011;33994;50.998;5.864;2022-08-06T06:46:11;4.22;;;1.70;;
48203;SDS011;33994;50.998;5.864;2022-08-06T06:52:41;8.10;;;2.78;;
48203;SDS011;33994;50.998;5.864;2022-08-06T06:55:48;4.70;;;1.90;;
48203;SDS011;33994;50.998;5.864;2022-08-06T06:59:01;6.13;;;2.13;;
48203;SDS011;33994;50.998;5.864;2022-08-06T07:02:13;6.05;;;1.95;;
48203;SDS011;33994;50.998;5.864;2022-08-06T07:05:20;17.77;;;2.33;;
48203;SDS011;33994;50.998;5.864;2022-08-06T07:08:26;3.00;;;1.60;;
48203;SDS011;33994;50.998;5.864;2022-08-06T07:11:32;7.40;;;1.55;;
48203;SDS011;33994;50.998;5.864;2022-08-06T07:14:39;6.28;;;1.48;;
48203;SDS011;33994;50.998;5.864;2022-08-06T07:17:44;7.13;;;1.40;;
48203;SDS011;33994;50.998;5.864;2022-08-06T07:20:49;7.78;;;1.30;;
48203;SDS011;33994;50.998;5.864;2022-08-06T07:23:53;5.60;;;1.50;;
48203;SDS011;33994;50.998;5.864;2022-08-06T07:26:59;8.35;;;1.73;;
48203;SDS011;33994;50.998;5.864;2022-08-06T07:30:05;6.53;;;1.40;;
48203;SDS011;33994;50.998;5.864;2022-08-06T07:33:10;6.45;;;2.00;;
48203;SDS011;33994;50.998;5.864;2022-08-06T07:36:16;9.85;;;1.58;;
48203;SDS011;33994;50.998;5.864;2022-08-06T07:39:23;6.20;;;1.50;;
48203;SDS011;33994;50.998;5.864;2022-08-06T07:42:30;5.55;;;1.33;;
48203;SDS011;33994;50.998;5.864;2022-08-06T07:45:34;4.53;;;1.27;;
48203;SDS011;33994;50.998;5.864;2022-08-06T07:48:40;5.72;;;1.20;;
48203;SDS011;33994;50.998;5.864;2022-08-06T07:51:49;4.78;;;1.15;;
48203;SDS011;33994;50.998;5.864;2022-08-06T07:54:56;7.57;;;1.60;;
48203;SDS011;33994;50.998;5.864;2022-08-06T07:58:03;5.22;;;1.50;;
48203;SDS011;33994;50.998;5.864;2022-08-06T08:01:09;7.18;;;1.38;;
48203;SDS011;33994;50.998;5.864;2022-08-06T08:04:13;4.45;;;1.00;;
48203;SDS011;33994;50.998;5.864;2022-08-06T08:07:36;8.15;;;1.27;;
48203;SDS011;33994;50.998;5.864;2022-08-06T08:10:41;4.43;;;1.20;;
48203;SDS011;33994;50.998;5.864;2022-08-06T08:13:46;3.55;;;1.25;;
48203;SDS011;33994;50.998;5.864;2022-08-06T08:16:50;3.75;;;0.90;;
48203;SDS011;33994;50.998;5.864;2022-08-06T08:19:55;6.18;;;0.82;;
48203;SDS011;33994;50.998;5.864;2022-08-06T08:23:07;5.20;;;0.60;;
48203;SDS011;33994;50.998;5.864;2022-08-06T08:26:15;2.28;;;0.90;;
48203;SDS011;33994;50.998;5.864;2022-08-06T08:29:19;7.13;;;0.98;;
48203;SDS011;33994;50.998;5.864;2022-08-06T08:32:23;6.03;;;1.00;;
48203;SDS011;33994;50.998;5.864;2022-08-06T08:35:28;4.07;;;0.98;;
48203;SDS011;33994;50.998;5.864;2022-08-06T08:38:33;5.18;;;0.80;;
48203;SDS011;33994;50.998;5.864;2022-08-06T08:41:46;4.45;;;0.90;;
48203;SDS011;33994;50.998;5.864;2022-08-06T08:44:54;3.85;;;0.70;;
48203;SDS011;33994;50.998;5.864;2022-08-06T08:47:58;4.97;;;0.75;;
48203;SDS011;33994;50.998;5.864;2022-08-06T08:51:05;2.72;;;1.02;;
48203;SDS011;33994;50.998;5.864;2022-08-06T08:54:13;4.03;;;1.25;;
48203;SDS011;33994;50.998;5.864;2022-08-06T08:57:21;8.77;;;0.95;;
48203;SDS011;33994;50.998;5.864;2022-08-06T09:00:29;2.70;;;0.90;;
48203;SDS011;33994;50.998;5.864;2022-08-06T09:03:34;4.00;;;0.95;;
48203;SDS011;33994;50.998;5.864;2022-08-06T09:06:39;5.68;;;0.70;;
48203;SDS011;33994;50.998;5.864;2022-08-06T09:09:43;2.85;;;0.80;;
48203;SDS011;33994;50.998;5.864;2022-08-06T09:12:48;3.50;;;1.80;;
48203;SDS011;33994;50.998;5.864;2022-08-06T09:15:53;2.85;;;0.60;;
48203;SDS011;33994;50.998;5.864;2022-08-06T09:18:58;3.80;;;0.90;;
48203;SDS011;33994;50.998;5.864;2022-08-06T09:22:03;2.10;;;0.80;;
48203;SDS011;33994;50.998;5.864;2022-08-06T09:25:07;2.60;;;0.63;;
48203;SDS011;33994;50.998;5.864;2022-08-06T09:28:43;3.40;;;1.20;;
48203;SDS011;33994;50.998;5.864;2022-08-06T09:31:48;2.30;;;0.90;;
48203;SDS011;33994;50.998;5.864;2022-08-06T09:34:52;2.38;;;0.50;;
48203;SDS011;33994;50.998;5.864;2022-08-06T09:38:02;3.28;;;0.50;;
48203;SDS011;33994;50.998;5.864;2022-08-06T09:41:11;2.58;;;0.77;;
48203;SDS011;33994;50.998;5.864;2022-08-06T09:44:16;2.75;;;0.65;;
48203;SDS011;33994;50.998;5.864;2022-08-06T09:47:21;3.58;;;0.70;;
48203;SDS011;33994;50.998;5.864;2022-08-06T09:50:36;1.27;;;0.50;;
48203;SDS011;33994;50.998;5.864;2022-08-06T09:53:55;3.25;;;0.68;;
48203;SDS011;33994;50.998;5.864;2022-08-06T09:57:02;3.63;;;0.77;;
48203;SDS011;33994;50.998;5.864;2022-08-06T10:00:06;2.20;;;0.63;;
48203;SDS011;33994;50.998;5.864;2022-08-06T10:03:11;3.72;;;0.75;;
48203;SDS011;33994;50.998;5.864;2022-08-06T10:06:16;3.10;;;0.60;;
48203;SDS011;33994;50.998;5.864;2022-08-06T10:09:23;5.40;;;0.60;;
48203;SDS011;33994;50.998;5.864;2022-08-06T10:12:28;1.75;;;0.40;;
48203;SDS011;33994;50.998;5.864;2022-08-06T10:15:32;2.83;;;0.68;;
48203;SDS011;33994;50.998;5.864;2022-08-06T10:21:45;3.83;;;0.70;;
48203;SDS011;33994;50.998;5.864;2022-08-06T10:24:51;3.47;;;0.90;;
48203;SDS011;33994;50.998;5.864;2022-08-06T10:27:58;3.63;;;0.90;;
48203;SDS011;33994;50.998;5.864;2022-08-06T10:31:08;4.55;;;0.85;;
48203;SDS011;33994;50.998;5.864;2022-08-06T10:34:17;4.60;;;0.85;;
48203;SDS011;33994;50.998;5.864;2022-08-06T10:37:27;2.58;;;0.50;;
48203;SDS011;33994;50.998;5.864;2022-08-06T10:40:35;2.35;;;0.70;;
48203;SDS011;33994;50.998;5.864;2022-08-06T10:43:40;2.00;;;0.70;;
48203;SDS011;33994;50.998;5.864;2022-08-06T10:46:45;3.38;;;0.70;;
48203;SDS011;33994;50.998;5.864;2022-08-06T10:49:50;1.80;;;0.60;;
48203;SDS011;33994;50.998;5.864;2022-08-06T10:52:56;4.55;;;0.65;;
48203;SDS011;33994;50.998;5.864;2022-08-06T10:56:03;3.17;;;0.68;;
48203;SDS011;33994;50.998;5.864;2022-08-06T10:59:08;2.03;;;0.57;;
48203;SDS011;33994;50.998;5.864;2022-08-06T11:05:41;2.15;;;0.80;;
48203;SDS011;33994;50.998;5.864;2022-08-06T11:08:51;4.13;;;0.63;;
48203;SDS011;33994;50.998;5.864;2022-08-06T11:15:22;1.65;;;0.68;;
48203;SDS011;33994;50.998;5.864;2022-08-06T11:18:28;4.00;;;0.65;;
48203;SDS011;33994;50.998;5.864;2022-08-06T11:24:50;4.20;;;0.50;;
48203;SDS011;33994;50.998;5.864;2022-08-06T11:27:55;2.85;;;1.30;;
48203;SDS011;33994;50.998;5.864;2022-08-06T11:31:04;4.25;;;0.45;;
48203;SDS011;33994;50.998;5.864;2022-08-06T11:34:10;2.92;;;0.70;;
48203;SDS011;33994;50.998;5.864;2022-08-06T11:37:42;1.80;;;0.65;;
48203;SDS011;33994;50.998;5.864;2022-08-06T11:40:57;1.80;;;0.70;;
48203;SDS011;33994;50.998;5.864;2022-08-06T11:44:04;1.40;;;0.50;;
48203;SDS011;33994;50.998;5.864;2022-08-06T11:47:10;3.92;;;0.80;;
48203;SDS011;33994;50.998;5.864;2022-08-06T11:50:23;1.13;;;0.47;;
48203;SDS011;33994;50.998;5.864;2022-08-06T11:53:37;4.65;;;0.50;;
48203;SDS011;33994;50.998;5.864;2022-08-06T12:00:05;2.83;;;0.65;;
48203;SDS011;33994;50.998;5.864;2022-08-06T12:03:19;2.78;;;0.50;;
48203;SDS011;33994;50.998;5.864;2022-08-06T12:06:40;5.25;;;1.92;;
48203;SDS011;33994;50.998;5.864;2022-08-06T12:09:45;4.28;;;0.70;;
48203;SDS011;33994;50.998;5.864;2022-08-06T12:12:51;2.17;;;0.50;;
48203;SDS011;33994;50.998;5.864;2022-08-06T12:15:55;1.50;;;0.50;;
48203;SDS011;33994;50.998;5.864;2022-08-06T12:19:00;1.13;;;0.40;;
48203;SDS011;33994;50.998;5.864;2022-08-06T12:22:06;2.80;;;0.80;;
48203;SDS011;33994;50.998;5.864;2022-08-06T12:25:10;2.53;;;0.63;;
48203;SDS011;33994;50.998;5.864;2022-08-06T12:28:16;2.38;;;0.60;;
48203;SDS011;33994;50.998;5.864;2022-08-06T12:31:29;1.43;;;0.70;;
48203;SDS011;33994;50.998;5.864;2022-08-06T12:34:38;8.20;;;1.70;;
48203;SDS011;33994;50.998;5.864;2022-08-06T12:37:44;1.35;;;0.70;;
48203;SDS011;33994;50.998;5.864;2022-08-06T12:41:00;4.07;;;0.60;;
48203;SDS011;33994;50.998;5.864;2022-08-06T12:44:08;1.23;;;0.30;;
48203;SDS011;33994;50.998;5.864;2022-08-06T12:47:14;2.75;;;0.60;;
48203;SDS011;33994;50.998;5.864;2022-08-06T12:50:18;2.05;;;0.60;;
48203;SDS011;33994;50.998;5.864;2022-08-06T12:53:23;1.17;;;0.40;;
48203;SDS011;33994;50.998;5.864;2022-08-06T12:56:28;4.55;;;0.80;;
48203;SDS011;33994;50.998;5.864;2022-08-06T12:59:34;3.28;;;0.55;;
48203;SDS011;33994;50.998;5.864;2022-08-06T13:02:40;1.38;;;0.60;;
48203;SDS011;33994;50.998;5.864;2022-08-06T13:05:45;5.72;;;0.70;;
48203;SDS011;33994;50.998;5.864;2022-08-06T13:08:51;1.85;;;0.55;;
48203;SDS011;33994;50.998;5.864;2022-08-06T13:11:57;3.33;;;0.60;;
48203;SDS011;33994;50.998;5.864;2022-08-06T13:15:09;1.23;;;0.50;;
48203;SDS011;33994;50.998;5.864;2022-08-06T13:18:17;1.15;;;0.47;;
48203;SDS011;33994;50.998;5.864;2022-08-06T13:21:22;2.55;;;0.60;;
48203;SDS011;33994;50.998;5.864;2022-08-06T13:24:27;5.50;;;0.93;;
48203;SDS011;33994;50.998;5.864;2022-08-06T13:27:32;1.80;;;0.73;;
48203;SDS011;33994;50.998;5.864;2022-08-06T13:30:39;3.20;;;0.52;;
48203;SDS011;33994;50.998;5.864;2022-08-06T13:33:57;1.10;;;0.50;;
48203;SDS011;33994;50.998;5.864;2022-08-06T13:37:07;2.50;;;0.80;;
48203;SDS011;33994;50.998;5.864;2022-08-06T13:40:11;3.90;;;0.77;;
48203;SDS011;33994;50.998;5.864;2022-08-06T13:43:16;2.53;;;0.50;;
48203;SDS011;33994;50.998;5.864;2022-08-06T13:46:22;1.38;;;0.52;;
48203;SDS011;33994;50.998;5.864;2022-08-06T13:49:29;2.28;;;0.68;;
48203;SDS011;33994;50.998;5.864;2022-08-06T13:52:34;1.60;;;0.65;;
48203;SDS011;33994;50.998;5.864;2022-08-06T13:55:38;2.92;;;0.75;;
48203;SDS011;33994;50.998;5.864;2022-08-06T13:58:46;2.63;;;0.75;;
48203;SDS011;33994;50.998;5.864;2022-08-06T14:01:50;0.93;;;0.50;;
48203;SDS011;33994;50.998;5.864;2022-08-06T14:04:55;1.58;;;0.63;;
48203;SDS011;33994;50.998;5.864;2022-08-06T14:07:59;1.85;;;0.70;;
48203;SDS011;33994;50.998;5.864;2022-08-06T14:11:04;2.70;;;0.47;;
48203;SDS011;33994;50.998;5.864;2022-08-06T14:14:08;3.33;;;0.85;;
48203;SDS011;33994;50.998;5.864;2022-08-06T14:17:13;4.60;;;1.00;;
48203;SDS011;33994;50.998;5.864;2022-08-06T14:20:17;1.73;;;1.00;;
48203;SDS011;33994;50.998;5.864;2022-08-06T14:23:22;1.90;;;0.60;;
48203;SDS011;33994;50.998;5.864;2022-08-06T14:26:27;4.65;;;0.90;;
48203;SDS011;33994;50.998;5.864;2022-08-06T14:29:32;1.42;;;0.65;;
48203;SDS011;33994;50.998;5.864;2022-08-06T14:32:37;4.93;;;0.90;;
48203;SDS011;33994;50.998;5.864;2022-08-06T14:35:41;1.27;;;0.77;;
48203;SDS011;33994;50.998;5.864;2022-08-06T14:38:46;3.33;;;1.48;;
48203;SDS011;33994;50.998;5.864;2022-08-06T14:41:51;3.55;;;1.35;;
48203;SDS011;33994;50.998;5.864;2022-08-06T14:45:12;3.28;;;1.23;;
48203;SDS011;33994;50.998;5.864;2022-08-06T14:48:17;2.33;;;0.95;;
48203;SDS011;33994;50.998;5.864;2022-08-06T14:51:22;4.43;;;1.20;;
48203;SDS011;33994;50.998;5.864;2022-08-06T14:54:27;3.67;;;1.02;;
48203;SDS011;33994;50.998;5.864;2022-08-06T14:57:37;2.00;;;0.80;;
48203;SDS011;33994;50.998;5.864;2022-08-06T15:00:42;5.18;;;2.17;;
48203;SDS011;33994;50.998;5.864;2022-08-06T15:03:50;1.90;;;1.00;;
48203;SDS011;33994;50.998;5.864;2022-08-06T15:06:57;1.80;;;1.00;;
48203;SDS011;33994;50.998;5.864;2022-08-06T15:10:01;3.67;;;0.80;;
48203;SDS011;33994;50.998;5.864;2022-08-06T15:13:06;3.45;;;0.90;;
48203;SDS011;33994;50.998;5.864;2022-08-06T15:16:10;2.60;;;0.98;;
48203;SDS011;33994;50.998;5.864;2022-08-06T15:19:14;4.05;;;1.00;;
48203;SDS011;33994;50.998;5.864;2022-08-06T15:22:19;3.58;;;1.02;;
48203;SDS011;33994;50.998;5.864;2022-08-06T15:25:23;4.45;;;1.10;;
48203;SDS011;33994;50.998;5.864;2022-08-06T15:28:28;1.52;;;1.00;;
48203;SDS011;33994;50.998;5.864;2022-08-06T15:31:32;1.73;;;0.98;;
48203;SDS011;33994;50.998;5.864;2022-08-06T15:34:37;3.47;;;1.17;;
48203;SDS011;33994;50.998;5.864;2022-08-06T15:37:41;2.00;;;0.90;;
48203;SDS011;33994;50.998;5.864;2022-08-06T15:40:45;5.65;;;1.40;;
48203;SDS011;33994;50.998;5.864;2022-08-06T15:43:50;3.42;;;0.93;;
48203;SDS011;33994;50.998;5.864;2022-08-06T15:46:54;3.25;;;1.17;;
48203;SDS011;33994;50.998;5.864;2022-08-06T15:49:59;1.17;;;0.63;;
48203;SDS011;33994;50.998;5.864;2022-08-06T15:53:04;3.55;;;1.10;;
48203;SDS011;33994;50.998;5.864;2022-08-06T15:56:08;2.63;;;1.00;;
48203;SDS011;33994;50.998;5.864;2022-08-06T15:59:12;2.15;;;0.90;;
48203;SDS011;33994;50.998;5.864;2022-08-06T16:02:17;4.20;;;1.52;;
48203;SDS011;33994;50.998;5.864;2022-08-06T16:05:21;1.83;;;1.00;;
48203;SDS011;33994;50.998;5.864;2022-08-06T16:08:26;2.15;;;0.73;;
48203;SDS011;33994;50.998;5.864;2022-08-06T16:11:30;2.75;;;0.85;;
48203;SDS011;33994;50.998;5.864;2022-08-06T16:14:34;1.67;;;1.10;;
48203;SDS011;33994;50.998;5.864;2022-08-06T16:17:39;1.00;;;0.63;;
48203;SDS011;33994;50.998;5.864;2022-08-06T16:20:43;2.78;;;1.15;;
48203;SDS011;33994;50.998;5.864;2022-08-06T16:23:49;3.78;;;1.02;;
48203;SDS011;33994;50.998;5.864;2022-08-06T16:26:54;3.85;;;1.00;;
48203;SDS011;33994;50.998;5.864;2022-08-06T16:29:58;2.40;;;0.70;;
48203;SDS011;33994;50.998;5.864;2022-08-06T16:33:03;3.00;;;0.75;;
48203;SDS011;33994;50.998;5.864;2022-08-06T16:36:07;2.97;;;1.20;;
48203;SDS011;33994;50.998;5.864;2022-08-06T16:39:11;2.38;;;1.05;;
48203;SDS011;33994;50.998;5.864;2022-08-06T16:42:16;1.58;;;0.93;;
48203;SDS011;33994;50.998;5.864;2022-08-06T16:45:21;2.63;;;0.90;;
48203;SDS011;33994;50.998;5.864;2022-08-06T16:48:30;2.20;;;0.90;;
48203;SDS011;33994;50.998;5.864;2022-08-06T16:51:34;4.28;;;1.00;;
48203;SDS011;33994;50.998;5.864;2022-08-06T16:54:39;4.53;;;0.75;;
48203;SDS011;33994;50.998;5.864;2022-08-06T16:57:44;0.98;;;0.70;;
48203;SDS011;33994;50.998;5.864;2022-08-06T17:00:49;2.22;;;0.77;;
48203;SDS011;33994;50.998;5.864;2022-08-06T17:03:54;2.38;;;0.60;;
48203;SDS011;33994;50.998;5.864;2022-08-06T17:06:59;3.22;;;0.70;;
48203;SDS011;33994;50.998;5.864;2022-08-06T17:10:05;1.85;;;0.77;;
48203;SDS011;33994;50.998;5.864;2022-08-06T17:13:10;3.17;;;0.80;;
48203;SDS011;33994;50.998;5.864;2022-08-06T17:16:15;2.08;;;0.82;;
48203;SDS011;33994;50.998;5.864;2022-08-06T17:19:19;0.80;;;0.60;;
48203;SDS011;33994;50.998;5.864;2022-08-06T17:22:23;2.55;;;1.15;;
48203;SDS011;33994;50.998;5.864;2022-08-06T17:25:28;4.57;;;1.20;;
48203;SDS011;33994;50.998;5.864;2022-08-06T17:28:32;2.90;;;0.98;;
48203;SDS011;33994;50.998;5.864;2022-08-06T17:31:37;2.75;;;1.17;;
48203;SDS011;33994;50.998;5.864;2022-08-06T17:34:41;2.60;;;0.90;;
48203;SDS011;33994;50.998;5.864;2022-08-06T17:37:46;1.25;;;0.60;;
48203;SDS011;33994;50.998;5.864;2022-08-06T17:40:52;2.67;;;0.57;;
48203;SDS011;33994;50.998;5.864;2022-08-06T17:43:57;2.13;;;0.90;;
48203;SDS011;33994;50.998;5.864;2022-08-06T17:47:01;2.63;;;0.90;;
48203;SDS011;33994;50.998;5.864;2022-08-06T17:50:06;3.58;;;0.75;;
48203;SDS011;33994;50.998;5.864;2022-08-06T17:53:11;4.25;;;0.47;;
48203;SDS011;33994;50.998;5.864;2022-08-06T17:56:16;1.48;;;0.57;;
48203;SDS011;33994;50.998;5.864;2022-08-06T17:59:20;2.53;;;0.55;;
48203;SDS011;33994;50.998;5.864;2022-08-06T18:02:28;2.55;;;1.00;;
48203;SDS011;33994;50.998;5.864;2022-08-06T18:05:32;1.73;;;0.55;;
48203;SDS011;33994;50.998;5.864;2022-08-06T18:08:37;3.45;;;0.68;;
48203;SDS011;33994;50.998;5.864;2022-08-06T18:11:42;3.20;;;0.70;;
48203;SDS011;33994;50.998;5.864;2022-08-06T18:14:46;5.28;;;1.27;;
48203;SDS011;33994;50.998;5.864;2022-08-06T18:17:51;3.30;;;0.70;;
48203;SDS011;33994;50.998;5.864;2022-08-06T18:20:55;1.85;;;0.40;;
48203;SDS011;33994;50.998;5.864;2022-08-06T18:24:00;1.25;;;0.57;;
48203;SDS011;33994;50.998;5.864;2022-08-06T18:27:04;2.88;;;0.60;;
48203;SDS011;33994;50.998;5.864;2022-08-06T18:30:10;3.15;;;0.50;;
48203;SDS011;33994;50.998;5.864;2022-08-06T18:33:16;5.90;;;0.60;;
48203;SDS011;33994;50.998;5.864;2022-08-06T18:36:22;1.02;;;0.50;;
48203;SDS011;33994;50.998;5.864;2022-08-06T18:39:27;3.90;;;0.60;;
48203;SDS011;33994;50.998;5.864;2022-08-06T18:42:31;1.63;;;0.60;;
48203;SDS011;33994;50.998;5.864;2022-08-06T18:45:36;1.80;;;0.50;;
48203;SDS011;33994;50.998;5.864;2022-08-06T18:48:41;5.68;;;1.80;;
48203;SDS011;33994;50.998;5.864;2022-08-06T18:51:45;2.22;;;1.00;;
48203;SDS011;33994;50.998;5.864;2022-08-06T18:54:50;1.80;;;0.68;;
48203;SDS011;33994;50.998;5.864;2022-08-06T18:57:56;2.53;;;0.70;;
48203;SDS011;33994;50.998;5.864;2022-08-06T19:01:00;2.33;;;1.30;;
48203;SDS011;33994;50.998;5.864;2022-08-06T19:04:05;3.47;;;1.20;;
48203;SDS011;33994;50.998;5.864;2022-08-06T19:07:11;10.45;;;1.20;;
48203;SDS011;33994;50.998;5.864;2022-08-06T19:10:17;3.03;;;0.80;;
48203;SDS011;33994;50.998;5.864;2022-08-06T19:13:26;1.27;;;0.80;;
48203;SDS011;33994;50.998;5.864;2022-08-06T19:16:30;2.65;;;0.73;;
48203;SDS011;33994;50.998;5.864;2022-08-06T19:19:35;3.65;;;0.80;;
48203;SDS011;33994;50.998;5.864;2022-08-06T19:22:40;3.05;;;0.70;;
48203;SDS011;33994;50.998;5.864;2022-08-06T19:25:45;2.30;;;0.93;;
48203;SDS011;33994;50.998;5.864;2022-08-06T19:28:49;4.72;;;1.30;;
48203;SDS011;33994;50.998;5.864;2022-08-06T19:31:54;4.45;;;1.05;;
48203;SDS011;33994;50.998;5.864;2022-08-06T19:34:58;2.78;;;1.08;;
48203;SDS011;33994;50.998;5.864;2022-08-06T19:38:03;4.85;;;1.17;;